This is the latest recevied weather packets stored in our database for station/object KB4JHU-15. If no packets are shown the sender has not sent any weather packets the latest 10 day(s).
| Time | Temp. | Humidity | Pressure | Rain* | Wind** | Luminosity | Snow |
|---|---|---|---|---|---|---|---|
| 1788616678 | 27.22° C | 78% | - | 0 mm | - | - | - |
| 1788614877 | 26.11° C | 85% | - | 0 mm | - | - | - |
| 1788613076 | 24.44° C | 91% | - | 0 mm | - | - | - |
| 1788611275 | 23.89° C | 94% | - | 0 mm | - | - | - |
| 1788609474 | 23.33° C | 94% | - | 0 mm | - | - | - |
| 1788607673 | 23.33° C | 94% | - | 0 mm | - | - | - |
| 1788605872 | 23.33° C | 94% | - | 0 mm | - | - | - |
| 1788604071 | 23.89° C | 94% | - | 0 mm | - | - | - |
| 1788602270 | 23.89° C | 93% | - | 0 mm | - | - | - |
| 1788600469 | 23.89° C | 93% | - | 0 mm | - | - | - |
| 1788598668 | 23.89° C | 92% | - | 0 mm | - | - | - |
| 1788596867 | 23.89° C | 92% | - | 0 mm | - | - | - |
| 1788595066 | 23.89° C | 92% | - | 0 mm | - | - | - |
| 1788593265 | 24.44° C | 92% | - | 0 mm | - | - | - |
| 1788591464 | 24.44° C | 91% | - | 0 mm | - | - | - |
| 1788589663 | 25° C | 90% | - | 0 mm | - | - | - |
| 1788587862 | 24.44° C | 89% | - | 0 mm | - | - | - |
| 1788586061 | 25° C | 88% | - | 0 mm | - | - | - |
| 1788584260 | 25.56° C | 87% | - | 0 mm | - | - | - |
| 1788582459 | 26.11° C | 84% | - | 0 mm | - | - | - |
| 1788580658 | 26.67° C | 82% | - | 0 mm | - | - | - |
| 1788578857 | 27.22° C | 80% | - | 0 mm | - | - | - |
| 1788577056 | 27.22° C | 78% | - | 0 mm | - | - | - |
| 1788575255 | 27.78° C | 77% | - | 0 mm | - | - | - |
| 1788573454 | 27.78° C | 76% | - | 0 mm | - | - | - |
* Rain latest hour (hover to see other rain measurements)
** Current wind speed in m/s (hover to see current wind gust speed)